aviador You're here:

MMLP Decoded Metar

LA PAZ in MEXICO
Report Time2017-03-25 16:40:00
UTC Time2017-03-25 17:21:47
Flight Rules vfr VFR
Wind350° at 06 kt
W.Decomp.*RWY 36: 5.6 kt HW 2.1 kt LCW
W.Rank350° ranks 5
Current wind is below 350° avg. (9.2)
Visibility9999 m
Phenomena:N/A
Clouds:N/A
Expected CloudBase > 8,400 ft AGL from Temp-Dew spread
CeilingNone
Temp24°C (ISA +9)
Dew Point03°C (25% RH)
AAT20.3°C
QNH1017 hPa
Density Alt1,102 ft
Elevation69 ft
Report Wrong Elevation
Raw Report
METAR MMLP 251640Z 35006KT 10SM SKC 24/03 A3004 RMK HZY=

Extra information for MMLP:More info

Metar Taf Metar & Taf Last 4 Metars F.Rules Stats Wind Profile Meteogram Temp Stats Airport Information Weather charts Add Link Nearby VenuesMetar ALERT Operation Metar Decoded Social comments